Time;durP1;ratioP1;P1;durP2;ratioP2;P2;SDS_P1;SDS_P2;PMS_P1;PMS_P2;Temp;Humidity;BMP_temperature;BMP_pressure;BME280_temperature;BME280_humidity;BME280_pressure;Samples;Min_cycle;Max_cycle;Signal;HPM_P1;HPM_P2
2021/03/11 00:00:48;;;;;;;33.97;4.95;;;8.50;99.90;;;;;;4871345;29;20085;-90
2021/03/11 00:03:16;;;;;;;20.65;4.22;;;8.50;99.90;;;;;;4853650;29;20044;-89
2021/03/11 00:05:42;;;;;;;22.58;3.65;;;8.50;99.90;;;;;;4848792;29;20037;-89
2021/03/11 00:08:08;;;;;;;24.50;5.50;;;8.60;99.90;;;;;;4845772;29;20496;-91
2021/03/11 00:10:35;;;;;;;32.00;3.85;;;8.60;99.90;;;;;;4845488;29;20048;-89
2021/03/11 00:13:01;;;;;;;30.63;4.30;;;8.70;99.90;;;;;;4845279;29;20495;-91
2021/03/11 00:15:28;;;;;;;22.58;3.97;;;8.60;99.90;;;;;;4861786;29;20026;-92
2021/03/11 00:17:54;;;;;;;13.50;2.55;;;8.70;99.90;;;;;;4861613;29;20053;-92
2021/03/11 00:20:25;;;;;;;17.92;3.78;;;8.80;99.90;;;;;;4845205;29;20022;-92
2021/03/11 00:22:51;;;;;;;17.58;3.63;;;8.70;99.90;;;;;;4845387;29;20033;-91
2021/03/11 00:25:18;;;;;;;25.48;3.67;;;8.70;99.90;;;;;;4845228;29;20025;-91
2021/03/11 00:27:45;;;;;;;35.72;5.53;;;8.70;99.90;;;;;;4845346;29;20074;-92
2021/03/11 00:30:12;;;;;;;22.85;5.75;;;8.70;99.90;;;;;;4845183;29;20029;-91
2021/03/11 00:32:38;;;;;;;24.65;3.92;;;8.60;99.90;;;;;;4844824;29;20394;-90
2021/03/11 00:35:09;;;;;;;29.63;3.88;;;8.70;99.90;;;;;;4857068;29;20033;-92
2021/03/11 00:37:35;;;;;;;21.63;3.10;;;8.60;99.90;;;;;;4860557;29;20021;-91
2021/03/11 00:40:05;;;;;;;16.45;3.20;;;8.60;99.90;;;;;;4855687;29;20049;-92
2021/03/11 00:42:31;;;;;;;32.23;5.23;;;8.60;99.90;;;;;;4849334;29;20033;-92
2021/03/11 00:44:57;;;;;;;20.67;3.65;;;8.50;99.90;;;;;;4847975;29;20064;-90
2021/03/11 00:47:23;;;;;;;20.92;3.72;;;8.50;99.90;;;;;;4846934;29;20064;-92
2021/03/11 00:49:49;;;;;;;28.10;4.45;;;8.50;99.90;;;;;;4845485;29;20117;-90
2021/03/11 00:52:15;;;;;;;26.05;4.22;;;8.50;99.90;;;;;;4862524;29;20071;-92
2021/03/11 00:54:41;;;;;;;34.15;4.55;;;8.40;99.90;;;;;;4846611;29;20026;-91
2021/03/11 00:57:07;;;;;;;21.92;3.95;;;8.40;99.90;;;;;;4845981;29;20048;-92
2021/03/11 00:59:33;;;;;;;25.92;3.45;;;8.40;99.90;;;;;;4844968;29;20061;-90
2021/03/11 01:01:59;;;;;;;26.30;3.90;;;8.50;99.90;;;;;;4814894;29;695530;-92
2021/03/11 01:04:25;;;;;;;14.20;2.75;;;8.50;99.90;;;;;;4834499;29;20404;-93
2021/03/11 01:06:51;;;;;;;26.10;5.25;;;8.50;99.90;;;;;;4843674;29;20034;-92
2021/03/11 01:09:17;;;;;;;17.25;4.47;;;8.50;99.90;;;;;;4842367;29;20032;-92
2021/03/11 01:11:43;;;;;;;19.77;3.50;;;8.50;99.90;;;;;;4842430;29;20040;-91
2021/03/11 01:14:09;;;;;;;34.58;3.97;;;8.50;99.90;;;;;;4842761;29;20552;-91
2021/03/11 01:16:34;;;;;;;18.13;2.42;;;8.50;99.90;;;;;;4842382;29;20053;-92
2021/03/11 01:19:00;;;;;;;32.13;4.22;;;8.50;99.90;;;;;;4843282;29;20048;-91
2021/03/11 01:21:26;;;;;;;31.60;3.95;;;8.50;99.90;;;;;;4842460;29;20029;-92
2021/03/11 01:23:51;;;;;;;20.42;3.22;;;8.60;99.90;;;;;;4841930;29;20034;-93
2021/03/11 01:26:17;;;;;;;20.65;3.42;;;8.50;99.90;;;;;;4843042;29;20037;-91
2021/03/11 01:28:43;;;;;;;18.73;3.15;;;8.60;99.90;;;;;;4841758;29;20030;-93
2021/03/11 01:31:08;;;;;;;32.10;4.65;;;8.60;99.90;;;;;;4841943;29;20125;-92
2021/03/11 01:33:34;;;;;;;9.77;2.33;;;8.60;99.90;;;;;;4843120;29;20477;-91
2021/03/11 01:36:00;;;;;;;27.88;4.90;;;8.60;99.90;;;;;;4841625;29;20125;-92
2021/03/11 01:38:26;;;;;;;17.70;3.85;;;8.60;99.90;;;;;;4842698;29;20034;-91
2021/03/11 01:40:53;;;;;;;29.75;3.25;;;8.70;99.90;;;;;;4842840;29;20030;-90
2021/03/11 01:43:20;;;;;;;30.20;3.70;;;8.70;99.90;;;;;;4843176;29;20048;-92
2021/03/11 01:45:46;;;;;;;29.02;4.22;;;8.70;99.90;;;;;;4841443;29;20030;-91
2021/03/11 01:48:12;;;;;;;26.92;4.00;;;8.70;99.90;;;;;;4841879;29;20441;-91
2021/03/11 01:50:38;;;;;;;28.17;3.97;;;8.70;99.90;;;;;;4841378;29;20040;-90
2021/03/11 01:53:04;;;;;;;22.58;3.08;;;8.60;99.90;;;;;;4826865;29;20419;-92
2021/03/11 01:55:30;;;;;;;32.92;4.72;;;8.60;99.90;;;;;;4842007;29;20030;-91
2021/03/11 01:57:56;;;;;;;11.80;2.22;;;8.50;99.90;;;;;;4841666;29;20049;-90
2021/03/11 02:00:22;;;;;;;33.42;3.67;;;8.50;99.90;;;;;;4843120;29;20253;-91
2021/03/11 02:02:50;;;;;;;34.83;6.03;;;8.40;99.90;;;;;;4841604;29;20145;-92
2021/03/11 02:05:17;;;;;;;24.40;3.60;;;8.40;99.90;;;;;;4842158;29;20472;-91
2021/03/11 02:07:43;;;;;;;22.45;4.15;;;8.30;99.90;;;;;;4842523;29;20037;-92
2021/03/11 02:10:13;;;;;;;24.25;4.38;;;8.40;99.90;;;;;;4842470;29;20061;-92
2021/03/11 02:13:18;;;;;;;29.42;5.30;;;8.30;99.90;;;;;;4843782;29;20037;-92
2021/03/11 02:16:09;;;;;;;25.95;3.65;;;8.30;99.90;;;;;;4864514;29;20030;-91
2021/03/11 02:18:41;;;;;;;;;;;8.30;99.90;;;;;;4868926;29;20030;-92
2021/03/11 02:21:15;;;;;;;23.27;3.55;;;8.30;99.90;;;;;;4868447;29;19908;-93
2021/03/11 02:24:08;;;;;;;10.80;1.95;;;8.30;99.90;;;;;;4858083;29;20376;-93
2021/03/11 02:27:18;;;;;;;19.50;2.25;;;8.30;99.90;;;;;;4845881;29;20097;-92
2021/03/11 02:29:46;;;;;;;13.77;3.63;;;8.30;99.90;;;;;;4845139;29;20520;-92
2021/03/11 02:35:43;;;;;;;22.10;2.90;;;8.20;99.90;;;;;;4845943;29;20119;-92
2021/03/11 02:38:12;;;;;;;18.55;2.50;;;8.20;99.90;;;;;;4844705;29;20030;-91
2021/03/11 02:40:39;;;;;;;14.60;2.53;;;8.20;99.90;;;;;;4845789;29;20058;-92
2021/03/11 02:43:10;;;;;;;13.63;2.08;;;8.20;99.90;;;;;;4844289;29;20093;-91
2021/03/11 02:45:37;;;;;;;6.68;1.88;;;8.10;99.90;;;;;;4843940;29;20495;-90
2021/03/11 02:49:12;;;;;;;18.85;3.05;;;8.20;99.90;;;;;;4844031;29;20040;-90
2021/03/11 02:52:02;;;;;;;21.70;2.65;;;8.20;99.90;;;;;;4843882;29;20034;-91
2021/03/11 02:58:11;;;;;;;14.90;4.15;;;8.20;99.90;;;;;;4844551;29;20049;-91
2021/03/11 03:00:38;;;;;;;9.98;2.67;;;8.20;99.90;;;;;;4843635;29;20488;-92
2021/03/11 03:03:06;;;;;;;24.60;3.42;;;8.20;99.90;;;;;;4843337;29;20057;-91
2021/03/11 03:06:26;;;;;;;15.50;2.17;;;8.20;99.90;;;;;;4844585;29;20037;-89
2021/03/11 03:09:32;;;;;;;9.40;2.70;;;8.10;99.90;;;;;;4843441;29;20053;-92
2021/03/11 03:16:01;;;;;;;15.93;2.03;;;8.10;99.90;;;;;;4805615;29;20062;-92
2021/03/11 03:18:28;;;;;;;;;;;8.10;99.90;;;;;;4790935;29;20042;-91
2021/03/11 03:20:56;;;;;;;18.13;3.03;;;8.10;99.90;;;;;;4805864;29;20364;-92
2021/03/11 03:24:17;;;;;;;25.02;4.10;;;8.10;99.90;;;;;;4790402;29;20034;-92
2021/03/11 03:26:43;;;;;;;;;;;8.00;99.90;;;;;;4805576;29;20126;-93
2021/03/11 03:29:09;;;;;;;16.55;3.15;;;7.90;99.90;;;;;;4789886;29;20007;-92
2021/03/11 03:31:36;;;;;;;18.73;3.08;;;7.90;99.90;;;;;;4805378;29;20050;-92
2021/03/11 03:37:34;;;;;;;19.27;2.42;;;7.80;99.90;;;;;;4804603;29;20488;-92
2021/03/11 03:41:18;;;;;;;9.93;2.05;;;7.80;99.90;;;;;;4789144;29;20031;-93
2021/03/11 03:43:47;;;;;;;12.15;2.80;;;7.70;99.90;;;;;;4805021;29;20038;-92
2021/03/11 03:47:14;;;;;;;6.78;1.75;;;7.70;99.90;;;;;;4805367;29;20126;-92
2021/03/11 03:50:00;;;;;;;9.50;1.63;;;7.70;99.90;;;;;;4805265;29;20027;-93
2021/03/11 03:52:28;;;;;;;14.38;2.53;;;7.70;99.90;;;;;;4835701;29;20100;-93
2021/03/11 03:54:56;;;;;;;12.27;1.85;;;7.70;99.90;;;;;;4842979;29;20060;-92
2021/03/11 03:57:25;;;;;;;13.27;2.63;;;7.70;99.90;;;;;;4843379;29;20583;-91
2021/03/11 04:00:28;;;;;;;11.18;2.20;;;7.70;99.90;;;;;;4842995;29;20022;-92
2021/03/11 04:02:56;;;;;;;12.05;1.67;;;7.70;99.90;;;;;;4842448;29;20516;-92
2021/03/11 04:05:22;;;;;;;9.02;2.70;;;7.70;99.90;;;;;;4843106;29;20042;-91
2021/03/11 04:07:51;;;;;;;21.02;2.45;;;7.80;99.90;;;;;;4845776;29;20029;-93
2021/03/11 04:10:53;;;;;;;17.20;3.65;;;7.80;99.90;;;;;;4857109;29;20033;-93
2021/03/11 04:13:21;;;;;;;15.75;1.67;;;7.80;99.90;;;;;;4863874;29;20034;-92
2021/03/11 04:16:16;;;;;;;6.20;1.67;;;7.90;99.90;;;;;;4864256;29;20072;-92
2021/03/11 04:19:10;;;;;;;14.75;2.50;;;7.90;99.90;;;;;;4854573;29;20523;-93
2021/03/11 04:22:16;;;;;;;11.25;2.38;;;7.90;99.90;;;;;;4846851;29;20030;-94
2021/03/11 04:25:24;;;;;;;10.35;1.92;;;7.90;99.90;;;;;;4845135;29;20034;-92
2021/03/11 04:28:44;;;;;;;10.88;2.53;;;7.90;99.90;;;;;;4845088;29;20044;-92
2021/03/11 04:31:10;;;;;;;15.65;2.72;;;7.80;99.90;;;;;;4791906;29;20045;-93
2021/03/11 04:33:37;;;;;;;15.75;2.00;;;7.80;99.90;;;;;;4791137;29;20128;-94
2021/03/11 04:36:05;;;;;;;13.98;2.45;;;7.70;99.90;;;;;;4806132;29;20035;-95
2021/03/11 04:39:19;;;;;;;19.10;2.33;;;7.70;99.90;;;;;;4790419;29;20039;-94
2021/03/11 04:41:47;;;;;;;19.83;2.67;;;7.70;99.90;;;;;;4805749;29;20043;-93
2021/03/11 04:45:03;;;;;;;9.35;2.08;;;7.70;99.90;;;;;;4805862;29;20212;-92
2021/03/11 04:47:30;;;;;;;21.25;2.20;;;7.70;99.90;;;;;;4790292;29;20096;-93
2021/03/11 04:49:59;;;;;;;13.98;2.00;;;7.70;99.90;;;;;;4790399;29;20042;-92
2021/03/11 04:52:26;;;;;;;4.82;1.90;;;7.60;99.90;;;;;;4790215;29;20035;-91
2021/03/11 04:55:41;;;;;;;10.20;2.22;;;7.70;99.90;;;;;;4790261;29;20043;-90
2021/03/11 04:58:32;;;;;;;11.38;1.73;;;7.60;99.90;;;;;;4804596;29;20046;-93
2021/03/11 05:00:59;;;;;;;13.10;1.95;;;7.60;99.90;;;;;;4790080;29;20104;-92
2021/03/11 05:04:11;;;;;;;7.40;1.05;;;7.60;99.90;;;;;;4789464;29;20571;-90
2021/03/11 05:06:37;;;;;;;16.67;2.13;;;7.60;99.90;;;;;;4821173;29;20186;-90
2021/03/11 05:09:04;;;;;;;6.65;1.50;;;7.60;99.90;;;;;;4849366;29;20555;-91
2021/03/11 05:11:30;;;;;;;1.50;0.50;;;7.60;99.90;;;;;;4848879;29;20030;-90
2021/03/11 05:14:10;;;;;;;2.75;0.90;;;7.60;99.90;;;;;;4845845;29;20038;-91
2021/03/11 05:21:01;;;;;;;7.13;1.27;;;7.60;99.90;;;;;;4842664;29;20286;-91
2021/03/11 05:23:27;;;;;;;3.38;0.73;;;7.70;99.90;;;;;;4841818;29;20037;-92
2021/03/11 05:25:54;;;;;;;9.25;1.05;;;7.70;99.90;;;;;;4841625;29;20038;-91
2021/03/11 05:29:34;;;;;;;7.68;1.20;;;7.70;99.90;;;;;;4841315;29;20033;-92
2021/03/11 05:32:49;;;;;;;5.63;1.60;;;7.60;99.90;;;;;;4842888;29;20037;-92
2021/03/11 05:38:45;;;;;;;10.57;2.17;;;7.60;99.90;;;;;;4841744;29;20482;-92
2021/03/11 05:42:02;;;;;;;7.88;1.85;;;7.60;99.90;;;;;;4841070;29;20170;-92
2021/03/11 05:44:29;;;;;;;8.45;1.40;;;7.60;99.90;;;;;;4842601;29;20075;-90
2021/03/11 05:47:50;;;;;;;11.65;1.38;;;7.60;99.90;;;;;;4841231;29;20026;-91
2021/03/11 05:50:16;;;;;;;15.68;1.42;;;7.60;99.90;;;;;;4841200;29;20033;-92
2021/03/11 05:52:42;;;;;;;9.57;1.73;;;7.50;99.90;;;;;;4841604;29;20033;-92
2021/03/11 05:55:10;;;;;;;14.23;1.75;;;7.60;99.90;;;;;;4842205;29;20084;-91
2021/03/11 05:57:42;;;;;;;5.75;1.08;;;7.50;99.90;;;;;;4841059;29;20048;-91
2021/03/11 06:04:39;;;;;;;8.77;1.42;;;7.50;99.90;;;;;;4856330;29;20162;-92
2021/03/11 06:07:20;;;;;;;10.18;1.40;;;7.60;99.90;;;;;;4844667;29;20487;-90
2021/03/11 06:09:47;;;;;;;8.00;1.42;;;7.60;99.90;;;;;;4845039;29;20132;-91
2021/03/11 06:12:14;;;;;;;10.25;1.50;;;7.60;99.90;;;;;;4845254;29;20499;-90
2021/03/11 06:14:47;;;;;;;13.38;1.52;;;7.60;99.90;;;;;;4845123;29;20512;-90
2021/03/11 06:17:16;;;;;;;5.28;1.20;;;7.70;99.90;;;;;;4861267;29;20124;-92
2021/03/11 06:19:43;;;;;;;8.35;2.55;;;7.70;99.90;;;;;;4861482;29;20026;-90
2021/03/11 06:23:08;;;;;;;6.43;0.85;;;7.70;99.90;;;;;;4845195;29;20589;-91
2021/03/11 06:25:36;;;;;;;5.78;1.05;;;7.60;99.90;;;;;;4844838;29;20400;-91
2021/03/11 06:28:02;;;;;;;1.42;0.47;;;7.70;99.90;;;;;;4844784;29;20488;-90
2021/03/11 06:30:32;;;;;;;1.25;0.40;;;7.70;99.90;;;;;;4861297;29;20037;-90
2021/03/11 06:33:00;;;;;;;5.80;0.85;;;7.60;99.90;;;;;;4844446;29;20116;-91
2021/03/11 06:35:27;;;;;;;10.00;1.00;;;7.60;99.90;;;;;;4844716;29;20082;-90
2021/03/11 06:37:54;;;;;;;1.35;0.57;;;7.60;99.90;;;;;;4844905;29;20049;-91
2021/03/11 06:40:26;;;;;;;2.00;0.52;;;7.60;99.90;;;;;;4845122;29;20466;-90
2021/03/11 06:43:07;;;;;;;6.50;0.65;;;7.50;99.90;;;;;;4844415;29;20030;-90
2021/03/11 06:45:34;;;;;;;4.30;0.90;;;7.40;99.90;;;;;;4846270;29;20025;-90
2021/03/11 06:48:29;;;;;;;4.07;0.90;;;7.40;99.90;;;;;;4860532;29;20029;-90
2021/03/11 06:51:01;;;;;;;8.65;1.70;;;7.30;99.90;;;;;;4843749;29;20489;-90
2021/03/11 06:56:50;;;;;;;3.38;1.38;;;7.20;99.90;;;;;;4858413;29;20141;-91
2021/03/11 06:59:15;;;;;;;2.95;0.40;;;7.20;99.90;;;;;;4842992;29;20025;-91
2021/03/11 07:01:52;;;;;;;0.52;0.20;;;7.10;99.90;;;;;;4845943;29;20038;-90
2021/03/11 07:04:25;;;;;;;1.90;0.40;;;7.00;99.90;;;;;;4845086;29;20416;-90
2021/03/11 07:07:48;;;;;;;1.10;0.40;;;6.90;99.90;;;;;;4844058;29;20388;-91
2021/03/11 07:10:45;;;;;;;1.75;0.22;;;6.80;99.90;;;;;;4850506;29;20139;-91
2021/03/11 07:16:34;;;;;;;1.73;0.40;;;6.60;99.90;;;;;;4860468;29;20152;-90
2021/03/11 07:19:17;;;;;;;1.25;0.30;;;6.50;99.90;;;;;;4862849;29;20112;-91
2021/03/11 07:21:49;;;;;;;5.85;0.65;;;6.50;99.90;;;;;;4846048;29;20018;-91
2021/03/11 07:24:38;;;;;;;5.07;1.17;;;6.50;99.90;;;;;;4846007;29;20028;-90
2021/03/11 07:31:04;;;;;;;4.47;0.98;;;6.50;99.90;;;;;;4862581;29;20110;-90
2021/03/11 07:33:42;;;;;;;3.10;0.80;;;6.60;99.90;;;;;;4845139;29;20052;-90
2021/03/11 07:36:10;;;;;;;7.90;1.08;;;6.50;99.90;;;;;;4860245;29;20033;-90
2021/03/11 07:38:36;;;;;;;8.30;0.80;;;6.50;99.90;;;;;;4846090;29;20021;-90
2021/03/11 07:41:09;;;;;;;6.35;0.80;;;6.50;99.90;;;;;;4846543;29;20056;-89
2021/03/11 07:46:59;;;;;;;7.35;1.38;;;6.40;99.90;;;;;;4861667;29;20508;-90
2021/03/11 07:49:27;;;;;;;6.32;0.88;;;6.40;99.90;;;;;;4846557;29;20029;-90
2021/03/11 07:51:56;;;;;;;3.28;0.93;;;6.40;99.90;;;;;;4846782;29;20485;-91
2021/03/11 07:54:25;;;;;;;7.55;1.73;;;6.40;99.90;;;;;;4860174;29;20031;-90
2021/03/11 07:56:52;;;;;;;7.10;0.98;;;6.40;99.90;;;;;;4863133;29;20056;-90
2021/03/11 07:59:19;;;;;;;9.75;1.42;;;6.40;99.90;;;;;;4846063;29;20034;-89
2021/03/11 08:01:54;;;;;;;12.45;1.73;;;6.50;99.90;;;;;;4865413;29;20049;-89
2021/03/11 08:04:23;;;;;;;5.35;1.15;;;6.50;99.90;;;;;;4857395;29;20057;-89
2021/03/11 08:06:49;;;;;;;2.13;0.95;;;6.50;99.90;;;;;;4860505;29;20044;-89
2021/03/11 08:09:40;;;;;;;11.57;1.23;;;6.50;99.90;;;;;;4856882;29;20041;-90
2021/03/11 08:12:35;;;;;;;11.82;2.45;;;6.40;99.90;;;;;;4850796;29;20103;-91
2021/03/11 08:20:43;;;;;;;8.18;1.38;;;6.30;99.90;;;;;;4988274;27;3117730;-92
2021/03/11 08:23:11;;;;;;;10.23;1.90;;;6.30;99.90;;;;;;5067294;28;20272;-90
2021/03/11 08:25:37;;;;;;;10.60;1.92;;;6.30;99.90;;;;;;5066305;28;20056;-90
2021/03/11 08:28:09;;;;;;;7.90;1.35;;;6.30;99.90;;;;;;5054750;28;20394;-91
2021/03/11 08:30:38;;;;;;;10.70;1.13;;;6.40;99.90;;;;;;5052041;28;20141;-90
2021/03/11 08:33:09;;;;;;;7.82;1.10;;;6.30;99.90;;;;;;5052444;28;20025;-93
2021/03/11 08:38:22;;;;;;;11.30;1.38;;;6.40;99.90;;;;;;5052349;28;19909;-91
2021/03/11 08:41:33;;;;;;;14.95;1.50;;;6.40;99.90;;;;;;5050142;28;20041;-92
2021/03/11 08:44:02;;;;;;;14.15;1.80;;;6.40;99.90;;;;;;5051145;28;20104;-90
2021/03/11 08:46:48;;;;;;;10.77;2.33;;;6.50;99.90;;;;;;5051859;28;20075;-90
2021/03/11 08:49:38;;;;;;;8.27;1.38;;;6.50;99.90;;;;;;5051320;28;20040;-90
2021/03/11 08:53:05;;;;;;;15.82;2.22;;;6.60;99.90;;;;;;5061650;28;20083;-92
2021/03/11 08:55:41;;;;;;;16.35;2.00;;;6.60;99.90;;;;;;5068797;28;20028;-93
2021/03/11 08:58:27;;;;;;;14.70;1.63;;;6.60;99.90;;;;;;5069188;28;20033;-93
2021/03/11 09:00:54;;;;;;;18.17;1.77;;;6.70;99.90;;;;;;5069330;28;20036;-94
2021/03/11 09:03:49;;;;;;;6.80;1.60;;;6.80;99.90;;;;;;5070443;28;20020;-93
2021/03/11 09:06:17;;;;;;;14.70;1.92;;;6.80;99.90;;;;;;5069873;28;20049;-94
2021/03/11 09:08:53;;;;;;;6.68;1.05;;;6.90;99.90;;;;;;5071720;28;20021;-93
2021/03/11 09:11:22;;;;;;;12.27;2.13;;;7.00;99.90;;;;;;5072034;28;20024;-93
2021/03/11 09:13:50;;;;;;;31.52;2.30;;;7.00;99.90;;;;;;5072432;28;20044;-94
2021/03/11 09:16:18;;;;;;;14.65;2.42;;;7.00;99.90;;;;;;5070725;28;20052;-94
2021/03/11 09:18:43;;;;;;;12.30;1.52;;;7.10;99.90;;;;;;5114542;23;20074;-93
2021/03/11 09:21:10;;;;;;;8.80;1.55;;;7.00;99.90;;;;;;5092870;28;20013;-93
2021/03/11 09:23:41;;;;;;;11.02;1.52;;;7.00;99.90;;;;;;5091185;28;20036;-94
2021/03/11 09:26:25;;;;;;;8.27;1.33;;;7.00;99.90;;;;;;5092445;28;20012;-92
2021/03/11 09:28:51;;;;;;;4.88;1.90;;;6.90;99.90;;;;;;5092968;28;20028;-92
2021/03/11 09:31:26;;;;;;;8.95;1.70;;;7.00;99.90;;;;;;5082017;28;20021;-95
2021/03/11 09:33:53;;;;;;;12.63;1.45;;;6.90;99.90;;;;;;5077243;28;20021;-92
2021/03/11 09:36:19;;;;;;;2.83;0.90;;;6.90;99.90;;;;;;5078227;28;20451;-91
2021/03/11 09:38:46;;;;;;;13.15;2.05;;;6.90;99.90;;;;;;5077484;28;20052;-92
2021/03/11 09:41:12;;;;;;;11.65;1.67;;;6.90;99.90;;;;;;5096170;28;20093;-93
2021/03/11 09:43:39;;;;;;;11.65;1.73;;;6.90;99.90;;;;;;5098821;28;20055;-94
2021/03/11 09:46:11;;;;;;;15.60;1.67;;;6.90;99.90;;;;;;5098448;28;20024;-93
2021/03/11 09:48:45;;;;;;;5.50;1.23;;;6.90;99.90;;;;;;5098210;28;20028;-94
2021/03/11 09:51:19;;;;;;;5.93;1.58;;;6.90;99.90;;;;;;5088557;28;20009;-94
2021/03/11 09:53:48;;;;;;;9.80;1.63;;;6.90;99.90;;;;;;5078447;28;20152;-93
2021/03/11 09:56:25;;;;;;;10.00;1.85;;;6.90;99.90;;;;;;5076927;28;20032;-93
2021/03/11 09:58:54;;;;;;;16.38;2.10;;;6.90;99.90;;;;;;5075248;28;20056;-93
2021/03/11 10:01:33;;;;;;;11.98;1.83;;;7.00;99.90;;;;;;5075155;28;20024;-94
2021/03/11 10:04:03;;;;;;;11.15;1.35;;;7.10;99.90;;;;;;5073628;28;20036;-92
2021/03/11 10:06:29;;;;;;;13.63;1.63;;;7.10;99.90;;;;;;5067810;28;20025;-94
2021/03/11 10:08:57;;;;;;;12.98;1.50;;;7.10;99.90;;;;;;5065053;28;20047;-93
2021/03/11 10:11:29;;;;;;;18.85;2.55;;;7.10;99.90;;;;;;5058301;28;20029;-92
2021/03/11 10:14:02;;;;;;;10.80;2.08;;;7.20;99.90;;;;;;5056058;28;20037;-94
2021/03/11 10:16:31;;;;;;;12.30;2.08;;;7.20;99.90;;;;;;5055999;28;20478;-95
2021/03/11 10:19:15;;;;;;;7.93;1.40;;;7.20;99.90;;;;;;5074790;28;20049;-93
2021/03/11 10:21:49;;;;;;;19.30;2.00;;;7.30;99.90;;;;;;5074863;28;20080;-94
2021/03/11 10:24:35;;;;;;;13.52;1.60;;;7.30;99.90;;;;;;5074262;28;20078;-92
2021/03/11 10:27:03;;;;;;;8.95;1.63;;;7.40;99.90;;;;;;5073718;28;20039;-93
2021/03/11 10:29:32;;;;;;;13.60;1.90;;;7.40;99.90;;;;;;5073879;28;20036;-94
2021/03/11 10:32:03;;;;;;;14.85;1.48;;;7.50;99.90;;;;;;5073415;28;20024;-94
2021/03/11 10:34:29;;;;;;;;;;;7.60;99.90;;;;;;5073997;28;20029;-93
2021/03/11 10:37:00;;;;;;;8.48;1.27;;;7.70;99.90;;;;;;5073734;28;20019;-93
2021/03/11 10:39:27;;;;;;;12.85;1.98;;;7.80;99.90;;;;;;5071874;28;20036;-93
2021/03/11 10:42:05;;;;;;;13.23;1.80;;;7.80;99.90;;;;;;5072527;28;20070;-93
2021/03/11 10:44:33;;;;;;;8.77;1.17;;;7.90;99.90;;;;;;5073283;28;20047;-95
2021/03/11 10:47:17;;;;;;;4.00;1.20;;;7.90;99.90;;;;;;5072400;28;20086;-94
2021/03/11 10:49:44;;;;;;;6.57;1.00;;;7.90;99.90;;;;;;5061915;28;20033;-91
2021/03/11 10:52:16;;;;;;;11.30;1.35;;;7.90;99.90;;;;;;5063967;28;20109;-93
2021/03/11 10:54:43;;;;;;;10.18;1.50;;;7.90;99.90;;;;;;5055509;28;20029;-93
2021/03/11 10:57:14;;;;;;;5.65;0.98;;;7.90;99.60;;;;;;5056888;28;20029;-93
2021/03/11 10:59:50;;;;;;;9.15;1.02;;;7.90;99.80;;;;;;5065466;28;20032;-92
2021/03/11 11:02:43;;;;;;;6.68;1.30;;;8.00;98.70;;;;;;5073759;28;20090;-92
2021/03/11 11:05:09;;;;;;;10.10;1.23;;;8.30;98.40;;;;;;5073156;28;20048;-94
2021/03/11 11:07:41;;;;;;;7.60;1.20;;;8.70;98.30;;;;;;5074621;28;20027;-92
2021/03/11 11:10:08;;;;;;;9.25;1.05;;;9.00;98.40;;;;;;5073885;28;20509;-95
2021/03/11 11:12:33;;;;;;;12.60;1.67;;;9.40;97.50;;;;;;5073126;28;20028;-92
2021/03/11 11:14:59;;;;;;;6.65;1.23;;;9.80;96.20;;;;;;5081040;28;20047;-91
2021/03/11 11:17:25;;;;;;;6.88;1.50;;;10.20;95.00;;;;;;5081819;28;20044;-92
2021/03/11 11:23:14;;;;;;;4.53;1.38;;;10.60;90.90;;;;;;5084023;28;20036;-94
2021/03/11 11:26:30;;;;;;;5.82;1.15;;;10.40;89.20;;;;;;5069502;28;20033;-94
2021/03/11 11:36:20;;;;;;;3.78;0.95;;;10.10;91.10;;;;;;5075873;28;20046;-93
2021/03/11 11:38:46;;;;;;;9.63;1.92;;;10.00;91.40;;;;;;5069015;28;20029;-93
2021/03/11 11:41:14;;;;;;;6.85;1.63;;;10.00;91.30;;;;;;5078803;28;20029;-92
2021/03/11 11:43:41;;;;;;;7.80;1.23;;;10.00;91.80;;;;;;5075917;28;20035;-94
2021/03/11 11:46:08;;;;;;;8.68;1.48;;;9.90;91.70;;;;;;5077478;28;20024;-94
2021/03/11 11:48:34;;;;;;;10.95;1.58;;;9.70;91.90;;;;;;5081716;28;20029;-92
2021/03/11 11:51:00;;;;;;;6.78;1.15;;;9.60;91.40;;;;;;5094481;28;20047;-92
2021/03/11 11:53:25;;;;;;;4.75;1.08;;;9.40;90.80;;;;;;5095499;28;20039;-92
2021/03/11 11:55:51;;;;;;;4.70;1.27;;;9.10;90.30;;;;;;5093291;28;20104;-91
2021/03/11 11:58:17;;;;;;;4.68;1.63;;;9.00;90.60;;;;;;5077981;28;20021;-92
2021/03/11 12:00:43;;;;;;;10.63;1.20;;;8.80;91.30;;;;;;5075453;28;20528;-92
2021/03/11 12:03:09;;;;;;;9.38;1.60;;;8.80;91.60;;;;;;5074984;28;20059;-91
2021/03/11 12:05:35;;;;;;;5.97;1.63;;;8.70;92.00;;;;;;5073705;28;20024;-92
2021/03/11 12:08:03;;;;;;;9.57;1.02;;;8.60;92.30;;;;;;5073350;28;20013;-93
2021/03/11 12:10:29;;;;;;;7.22;1.30;;;8.50;92.40;;;;;;5072642;28;20041;-94
2021/03/11 12:12:54;;;;;;;11.80;1.42;;;8.60;92.70;;;;;;5073208;28;20024;-94
2021/03/11 12:15:21;;;;;;;11.43;2.05;;;8.90;93.00;;;;;;5073387;28;20115;-94
2021/03/11 12:40:56;;;;;;;3.83;0.80;;;8.60;91.90;;;;;;5051215;28;20166;-94
2021/03/11 12:43:26;;;;;;;6.72;1.08;;;8.50;92.40;;;;;;5042297;28;20430;-96
2021/03/11 12:45:53;;;;;;;7.55;1.63;;;8.40;91.60;;;;;;5042633;28;20025;-95
2021/03/11 12:48:20;;;;;;;5.35;0.80;;;8.40;91.00;;;;;;5042463;28;20468;-93
2021/03/11 13:24:33;;;;;;;10.20;1.83;;;8.30;90.40;;;;;;5112953;23;20054;-93
2021/03/11 13:26:59;;;;;;;12.00;2.92;;;8.40;90.60;;;;;;5020531;28;20060;-93
2021/03/11 13:29:24;;;;;;;13.35;2.45;;;8.40;90.80;;;;;;5018716;28;20124;-93
2021/03/11 13:31:50;;;;;;;5.50;1.15;;;8.50;91.30;;;;;;5019345;28;20029;-93
2021/03/11 13:34:16;;;;;;;7.32;1.52;;;8.60;92.10;;;;;;5020078;28;20470;-94
2021/03/11 13:36:41;;;;;;;6.75;1.10;;;8.50;92.40;;;;;;5024958;28;20470;-92
2021/03/11 13:39:07;;;;;;;6.63;1.45;;;8.50;93.00;;;;;;5024187;28;20474;-94
2021/03/11 13:41:35;;;;;;;9.07;1.40;;;8.40;93.40;;;;;;5024511;28;20052;-94
2021/03/11 13:44:01;;;;;;;8.30;2.05;;;8.30;93.70;;;;;;5026021;28;20029;-94
2021/03/11 13:46:26;;;;;;;10.52;1.38;;;8.20;93.90;;;;;;5022249;28;20053;-93
2021/03/11 13:48:52;;;;;;;4.57;1.17;;;8.30;94.30;;;;;;5019619;28;20045;-94
2021/03/11 13:51:18;;;;;;;13.02;3.35;;;8.20;94.70;;;;;;5017987;28;20032;-93
2021/03/11 13:53:43;;;;;;;7.70;1.27;;;8.20;94.80;;;;;;5017645;28;20663;-91
2021/03/11 13:56:09;;;;;;;8.35;1.30;;;8.20;94.80;;;;;;5017576;28;20103;-94
2021/03/11 13:58:36;;;;;;;8.82;1.08;;;8.50;95.30;;;;;;5017253;28;20136;-94
2021/03/11 14:01:02;;;;;;;6.70;1.10;;;8.80;94.90;;;;;;5017473;28;20025;-94
2021/03/11 14:03:28;;;;;;;8.50;1.83;;;9.10;94.20;;;;;;5017412;28;20029;-93
2021/03/11 14:05:54;;;;;;;7.80;1.17;;;9.20;93.10;;;;;;5017258;28;20032;-93
2021/03/11 14:08:19;;;;;;;8.55;1.17;;;9.30;92.30;;;;;;5017730;28;20087;-93
2021/03/11 14:10:45;;;;;;;13.52;3.15;;;9.20;91.60;;;;;;5018994;28;20410;-94
2021/03/11 14:13:11;;;;;;;8.57;1.38;;;9.10;91.30;;;;;;5016714;28;20056;-95
2021/03/11 14:15:37;;;;;;;6.88;1.80;;;9.10;90.80;;;;;;5016590;28;20072;-94
2021/03/11 14:18:03;;;;;;;4.88;0.90;;;9.10;90.80;;;;;;5016158;28;21217;-93
2021/03/11 14:20:28;;;;;;;3.60;1.20;;;9.00;90.30;;;;;;5016968;28;20060;-94
2021/03/11 14:22:54;;;;;;;11.80;1.30;;;9.00;89.00;;;;;;5017328;28;20032;-94
2021/03/11 14:25:20;;;;;;;6.18;0.95;;;8.90;87.80;;;;;;5013797;28;20054;-95
2021/03/11 14:27:46;;;;;;;15.50;2.33;;;8.80;88.00;;;;;;5014616;28;20022;-94
2021/03/11 14:30:12;;;;;;;4.35;0.75;;;8.70;89.30;;;;;;5019088;28;20542;-94
2021/03/11 14:32:38;;;;;;;7.75;1.17;;;8.80;90.10;;;;;;5017909;28;20164;-94
2021/03/11 14:35:05;;;;;;;10.35;1.55;;;8.80;90.30;;;;;;5017468;28;20058;-94
2021/03/11 14:37:31;;;;;;;9.23;1.73;;;8.70;90.30;;;;;;5016668;28;20111;-94
2021/03/11 14:39:56;;;;;;;6.20;1.48;;;8.60;90.40;;;;;;5016912;28;20127;-94
2021/03/11 14:42:22;;;;;;;8.90;1.52;;;8.60;90.80;;;;;;5017785;28;20479;-94
2021/03/11 14:44:48;;;;;;;13.85;2.00;;;8.70;91.00;;;;;;5024990;28;20458;-95
2021/03/11 14:47:15;;;;;;;6.50;1.30;;;8.90;91.10;;;;;;5027710;28;20049;-94
2021/03/11 14:49:41;;;;;;;7.60;1.25;;;8.90;90.50;;;;;;5024263;28;20670;-94
2021/03/11 14:52:07;;;;;;;9.63;1.33;;;8.80;90.20;;;;;;5018172;28;20026;-93
2021/03/11 14:54:33;;;;;;;7.32;1.13;;;8.70;90.30;;;;;;5016214;28;20433;-93
2021/03/11 14:56:59;;;;;;;4.97;1.50;;;8.60;90.00;;;;;;5016904;28;20049;-94
2021/03/11 14:59:24;;;;;;;9.05;1.45;;;8.40;91.40;;;;;;5014239;28;20065;-95
2021/03/11 15:01:51;;;;;;;8.80;1.25;;;8.20;92.70;;;;;;5014226;28;20018;-94
2021/03/11 15:04:16;;;;;;;7.30;1.40;;;8.00;93.50;;;;;;5013343;28;20036;-94
2021/03/11 15:06:42;;;;;;;15.80;1.75;;;7.80;94.20;;;;;;5028316;28;20034;-94
2021/03/11 15:09:08;;;;;;;11.88;2.47;;;7.80;94.80;;;;;;5013552;28;20033;-93
2021/03/11 15:11:33;;;;;;;10.52;1.98;;;7.90;95.30;;;;;;5012967;28;20030;-94
2021/03/11 15:14:01;;;;;;;15.05;1.90;;;8.00;95.50;;;;;;5012962;28;20018;-96
2021/03/11 15:16:30;;;;;;;14.48;1.70;;;8.10;95.50;;;;;;5022896;28;20033;-95
2021/03/11 15:18:56;;;;;;;11.52;1.70;;;8.20;95.80;;;;;;5025990;28;20040;-96
2021/03/11 15:21:22;;;;;;;10.10;1.75;;;8.50;96.50;;;;;;5023903;28;20050;-96